createdAt,value
2022-09-05T00:00:43.633Z,98.74
2022-09-05T00:01:42.653Z,98.74
2022-09-05T00:02:49.223Z,98.84
2022-09-05T00:03:43.676Z,98.84
2022-09-05T00:04:42.570Z,98.79
2022-09-05T00:06:00.119Z,98.79
2022-09-05T00:06:43.611Z,98.90
2022-09-05T00:07:59.252Z,98.69
2022-09-05T00:08:43.526Z,98.49
2022-09-05T00:09:42.548Z,98.54
2022-09-05T00:11:08.557Z,98.74
2022-09-05T00:11:44.263Z,98.63
2022-09-05T00:12:42.568Z,98.63
2022-09-05T00:13:42.539Z,98.84
2022-09-05T00:15:15.201Z,98.94
2022-09-05T00:15:43.502Z,99.35
2022-09-05T00:16:42.456Z,99.44
2022-09-05T00:19:50.340Z,99.30
2022-09-05T00:22:14.427Z,99.10
2022-09-05T00:24:23.449Z,99.04
2022-09-05T00:24:30.061Z,98.84
2022-09-05T00:24:32.907Z,98.74
2022-09-05T00:24:36.479Z,98.84
2022-09-05T00:24:37.782Z,98.94
2022-09-05T00:25:00.918Z,98.84
2022-09-05T00:25:43.523Z,99.04
2022-09-05T00:26:50.564Z,99.24
2022-09-05T00:27:43.348Z,99.10
2022-09-05T00:28:42.334Z,99.19
2022-09-05T00:31:07.016Z,98.79
2022-09-05T00:31:07.968Z,98.99
2022-09-05T00:31:54.213Z,98.90
2022-09-05T00:32:43.319Z,98.79
2022-09-05T00:33:43.281Z,98.79
2022-09-05T00:34:47.951Z,98.69
2022-09-05T00:35:43.231Z,98.59
2022-09-05T00:36:42.169Z,98.39
2022-09-05T00:37:42.197Z,98.39
2022-09-05T00:38:43.220Z,98.28
2022-09-05T00:39:42.152Z,98.28
2022-09-05T00:40:43.162Z,98.28
2022-09-05T00:41:42.110Z,98.39
2022-09-05T00:42:42.120Z,98.28
2022-09-05T00:43:42.131Z,98.28
2022-09-05T00:44:42.233Z,98.08
2022-09-05T00:45:42.072Z,98.08
2022-09-05T00:46:42.107Z,98.28
2022-09-05T00:47:42.054Z,98.49
2022-09-05T00:48:43.103Z,98.39
2022-09-05T00:49:42.065Z,98.23
2022-09-05T00:50:42.032Z,98.13
2022-09-05T00:51:41.983Z,98.13
2022-09-05T00:52:41.985Z,98.13
2022-09-05T00:53:41.994Z,98.13
2022-09-05T00:54:42.014Z,98.13
2022-09-05T00:55:41.943Z,98.23
2022-09-05T00:56:41.915Z,98.43
2022-09-05T00:57:41.922Z,98.54
2022-09-05T00:58:41.925Z,98.63
2022-09-05T00:59:41.925Z,98.84
2022-09-05T01:00:42.898Z,99.04
2022-09-05T01:01:41.933Z,99.14
2022-09-05T01:03:52.030Z,98.79
2022-09-05T01:04:52.100Z,98.88
2022-09-05T01:05:52.010Z,98.88
2022-09-05T01:06:51.993Z,98.88
2022-09-05T01:07:51.970Z,98.99
2022-09-05T01:08:51.960Z,99.08
2022-09-05T01:09:51.953Z,99.29
2022-09-05T01:10:51.963Z,99.49
2022-09-05T01:11:51.912Z,99.60
2022-09-05T01:12:52.801Z,99.60
2022-09-05T01:13:51.899Z,99.69
2022-09-05T01:14:52.911Z,99.69
2022-09-05T01:15:51.951Z,99.69
2022-09-05T01:16:51.888Z,99.60
2022-09-05T01:17:51.892Z,99.39
2022-09-05T01:18:51.891Z,99.19
2022-09-05T01:19:51.902Z,99.08
2022-09-05T01:20:51.813Z,99.19
2022-09-05T01:21:51.812Z,99.08
2022-09-05T01:22:51.827Z,99.08
2022-09-05T01:23:51.832Z,99.19
2022-09-05T01:24:51.834Z,99.29
2022-09-05T01:25:54.806Z,99.29
2022-09-05T01:26:51.744Z,99.54
2022-09-05T01:29:17.312Z,99.60
2022-09-05T01:29:18.164Z,99.60
2022-09-05T01:29:52.695Z,99.69
2022-09-05T01:30:54.915Z,99.69
2022-09-05T01:31:51.684Z,99.80
2022-09-05T01:32:51.678Z,99.69
2022-09-05T01:33:52.707Z,99.60
2022-09-05T01:34:51.686Z,99.49
2022-09-05T01:35:57.802Z,99.49
2022-09-05T01:36:52.627Z,99.39
2022-09-05T01:37:51.606Z,99.49
2022-09-05T01:39:16.558Z,99.29
2022-09-05T01:40:11.750Z,99.29
2022-09-05T01:41:17.923Z,99.29
2022-09-05T01:41:52.538Z,98.88
2022-09-05T01:42:51.549Z,98.88
2022-09-05T01:43:51.557Z,98.88
2022-09-05T01:44:51.568Z,98.88
2022-09-05T01:45:51.547Z,98.99
2022-09-05T01:46:51.465Z,98.99
2022-09-05T01:47:51.505Z,98.88
2022-09-05T01:48:51.481Z,98.79
2022-09-05T01:49:51.489Z,98.99
2022-09-05T01:50:51.657Z,99.19
2022-09-05T01:51:51.423Z,98.88
2022-09-05T01:52:58.607Z,98.83
2022-09-05T01:53:52.450Z,98.63
2022-09-05T01:54:51.430Z,98.63
2022-09-05T01:56:06.951Z,98.73
2022-09-05T01:56:52.360Z,98.83
2022-09-05T01:57:52.375Z,99.13
2022-09-05T01:58:53.421Z,99.13
2022-09-05T01:59:51.364Z,99.24
2022-09-05T02:00:51.382Z,99.24
2022-09-05T02:01:51.297Z,99.33
2022-09-05T02:02:51.319Z,99.24
2022-09-05T02:03:51.244Z,99.49
2022-09-05T02:04:52.350Z,99.58
2022-09-05T02:05:51.303Z,99.58
2022-09-05T02:06:51.205Z,99.69
2022-09-05T02:07:51.210Z,99.69
2022-09-05T02:08:51.225Z,99.49
2022-09-05T02:09:51.223Z,99.79
2022-09-05T02:10:52.184Z,99.89
2022-09-05T02:11:52.174Z,99.89
2022-09-05T02:12:54.490Z,99.99
2022-09-05T02:13:52.124Z,99.99
2022-09-05T02:14:51.124Z,99.99
2022-09-05T02:15:59.874Z,99.99
2022-09-05T02:16:52.088Z,99.99
2022-09-05T02:17:51.821Z,99.99
2022-09-05T02:18:51.088Z,99.99
2022-09-05T02:19:51.125Z,99.99
2022-09-05T02:20:51.086Z,99.99
2022-09-05T02:21:56.872Z,99.89
2022-09-05T02:22:52.035Z,99.89
2022-09-05T02:23:51.016Z,99.89
2022-09-05T02:24:51.009Z,99.89
2022-09-05T02:26:01.258Z,99.89
2022-09-05T02:26:51.958Z,99.99
2022-09-05T02:28:04.485Z,99.99
2022-09-05T02:28:51.967Z,99.99
2022-09-05T02:29:51.020Z,99.94
2022-09-05T02:31:18.702Z,99.99
2022-09-05T02:31:51.894Z,99.99
2022-09-05T02:32:50.878Z,99.99
2022-09-05T02:33:50.879Z,99.99
2022-09-05T02:34:50.932Z,99.99
2022-09-05T02:35:50.898Z,99.99
2022-09-05T02:36:50.900Z,99.99
2022-09-05T02:42:43.492Z,99.84
2022-09-05T02:43:35.333Z,99.99
2022-09-05T02:45:02.679Z,99.74
2022-09-05T02:45:09.110Z,99.53
2022-09-05T02:45:11.152Z,99.53
2022-09-05T02:45:18.999Z,99.53
2022-09-05T02:45:19.111Z,99.22
2022-09-05T02:45:23.872Z,99.43
2022-09-05T02:45:51.820Z,99.22
2022-09-05T02:46:50.998Z,99.22
2022-09-05T02:47:50.664Z,99.22
2022-09-05T02:48:50.670Z,99.22
2022-09-05T02:50:20.573Z,99.13
2022-09-05T02:57:23.459Z,99.13
2022-09-05T02:57:25.866Z,99.22
2022-09-05T02:57:29.970Z,99.33
2022-09-05T02:57:33.654Z,99.33
2022-09-05T02:57:37.438Z,99.33
2022-09-05T02:57:42.874Z,99.33
2022-09-05T02:57:46.250Z,99.33
2022-09-05T02:58:05.730Z,99.22
2022-09-05T02:59:09.128Z,99.22
2022-09-05T02:59:51.563Z,99.22
2022-09-05T03:00:51.099Z,99.33
2022-09-05T03:01:50.478Z,99.33
2022-09-05T03:02:50.581Z,99.33
2022-09-05T03:04:12.485Z,99.48
2022-09-05T03:04:50.435Z,99.38
2022-09-05T03:07:01.648Z,99.38
2022-09-05T03:09:19.354Z,99.38
2022-09-05T03:10:36.974Z,99.68
2022-09-05T03:11:26.827Z,99.99
2022-09-05T03:14:44.430Z,99.99
2022-09-05T03:15:51.904Z,99.99
2022-09-05T03:16:53.090Z,99.99
2022-09-05T03:17:51.888Z,99.99
2022-09-05T03:18:51.935Z,99.88
2022-09-05T03:19:46.447Z,99.78
2022-09-05T03:20:51.850Z,99.78
2022-09-05T03:21:44.330Z,99.88
2022-09-05T03:22:44.338Z,99.99
2022-09-05T03:23:44.320Z,99.99
2022-09-05T03:24:48.122Z,99.99
2022-09-05T03:25:45.273Z,99.99
2022-09-05T03:26:44.359Z,99.99
2022-09-05T03:27:44.263Z,99.99
2022-09-05T03:28:44.324Z,99.88
2022-09-05T03:29:44.311Z,99.68
2022-09-05T03:30:44.454Z,99.63
2022-09-05T03:31:44.204Z,99.63
2022-09-05T03:32:44.226Z,99.52
2022-09-05T03:33:44.224Z,99.52
2022-09-05T03:34:44.243Z,99.42
2022-09-05T03:35:44.292Z,99.52
2022-09-05T03:36:44.253Z,99.52
2022-09-05T03:37:45.174Z,99.42
2022-09-05T03:38:47.251Z,99.63
2022-09-05T03:39:44.227Z,99.73
2022-09-05T03:40:44.203Z,99.99
2022-09-05T03:41:44.206Z,99.99
2022-09-05T03:42:44.065Z,99.99
2022-09-05T03:43:44.045Z,99.99
2022-09-05T03:44:44.036Z,99.99
2022-09-05T03:45:44.248Z,99.99
2022-09-05T03:46:44.114Z,99.99
2022-09-05T03:47:44.013Z,99.99
2022-09-05T03:48:44.025Z,99.99
2022-09-05T03:53:29.436Z,99.99
2022-09-05T04:08:13.866Z,99.99
2022-09-05T04:08:15.971Z,99.99
2022-09-05T04:08:16.942Z,99.99
2022-09-05T04:08:17.304Z,99.99
2022-09-05T04:08:26.623Z,99.99
2022-09-05T04:08:42.759Z,99.99
2022-09-05T04:09:50.541Z,99.99
2022-09-05T04:10:38.408Z,99.99
2022-09-05T04:11:37.303Z,99.99
2022-09-05T04:12:37.339Z,99.99
2022-09-05T04:13:37.266Z,99.99
2022-09-05T04:14:37.282Z,99.99
2022-09-05T04:15:37.231Z,99.99
2022-09-05T04:16:37.306Z,99.99
2022-09-05T04:17:37.193Z,99.99
2022-09-05T04:18:37.251Z,99.99
2022-09-05T04:19:37.172Z,99.99
2022-09-05T04:20:40.285Z,99.99
2022-09-05T04:21:37.174Z,99.99
2022-09-05T04:22:37.145Z,99.99
2022-09-05T04:23:37.137Z,99.99
2022-09-05T04:24:37.114Z,99.99
2022-09-05T04:25:37.105Z,99.99
2022-09-05T04:26:37.115Z,99.99
2022-09-05T04:27:37.075Z,99.99
2022-09-05T04:28:37.066Z,99.99
2022-09-05T04:29:38.056Z,99.99
2022-09-05T04:30:39.489Z,99.99
2022-09-05T04:31:37.096Z,99.99
2022-09-05T04:32:37.015Z,99.99
2022-09-05T04:33:37.370Z,99.99
2022-09-05T04:34:36.986Z,99.99
2022-09-05T04:35:37.006Z,99.99
2022-09-05T04:36:36.966Z,99.99
2022-09-05T04:37:47.936Z,99.99
2022-09-05T04:38:37.947Z,99.99
2022-09-05T04:39:36.968Z,99.99
2022-09-05T04:40:36.907Z,99.99
2022-09-05T04:41:39.796Z,99.99
2022-09-05T04:42:36.877Z,99.99
2022-09-05T04:43:36.867Z,99.99
2022-09-05T04:44:36.852Z,99.99
2022-09-05T04:45:36.878Z,99.63
2022-09-05T04:46:48.476Z,99.33
2022-09-05T04:47:37.828Z,99.22
2022-09-05T04:48:36.800Z,99.02
2022-09-05T04:49:36.817Z,98.92
2022-09-05T04:50:38.299Z,98.72
2022-09-05T04:51:36.779Z,98.62
2022-09-05T04:52:36.747Z,98.62
2022-09-05T04:53:36.737Z,98.52
2022-09-05T04:54:36.760Z,98.56
2022-09-05T04:55:36.703Z,98.66
2022-09-05T04:56:36.719Z,98.56
2022-09-05T04:57:36.680Z,98.66
2022-09-05T04:58:53.503Z,98.86
2022-09-05T05:04:05.244Z,99.27
2022-09-05T05:05:22.308Z,99.27
2022-09-05T05:06:00.707Z,99.38
2022-09-05T05:06:11.748Z,99.68
2022-09-05T05:06:12.393Z,99.58
2022-09-05T05:06:14.486Z,99.78
2022-09-05T05:06:16.897Z,99.78
2022-09-05T05:06:46.858Z,99.88
2022-09-05T05:07:37.650Z,99.88
2022-09-05T05:08:39.160Z,99.99
2022-09-05T05:09:36.532Z,99.99
2022-09-05T05:14:35.377Z,99.99
2022-09-05T05:17:54.029Z,99.99
2022-09-05T05:17:56.164Z,99.99
2022-09-05T05:17:58.508Z,99.99
2022-09-05T05:18:14.834Z,99.99
2022-09-05T05:18:16.107Z,99.99
2022-09-05T05:18:16.109Z,99.99
2022-09-05T05:18:16.248Z,99.99
2022-09-05T05:18:53.177Z,99.99
2022-09-05T05:19:37.479Z,99.99
2022-09-05T05:20:42.019Z,99.99
2022-09-05T05:21:38.373Z,99.99
2022-09-05T05:22:36.386Z,99.99
2022-09-05T05:23:36.345Z,99.99
2022-09-05T05:24:36.360Z,99.99
2022-09-05T05:25:36.326Z,99.99
2022-09-05T05:26:36.300Z,99.99
2022-09-05T05:27:37.295Z,99.99
2022-09-05T05:28:36.275Z,99.78
2022-09-05T05:29:36.578Z,99.78
2022-09-05T05:30:36.245Z,99.99
2022-09-05T05:31:36.313Z,99.99
2022-09-05T05:32:46.081Z,99.99
2022-09-05T05:33:37.217Z,99.88
2022-09-05T05:34:36.200Z,99.78
2022-09-05T05:35:48.142Z,99.99
2022-09-05T05:36:37.177Z,99.99
2022-09-05T05:37:37.156Z,99.99
2022-09-05T05:38:36.140Z,99.99
2022-09-05T05:39:36.209Z,99.99
2022-09-05T05:40:37.604Z,99.99
2022-09-05T05:41:37.111Z,99.99
2022-09-05T05:42:36.104Z,99.99
2022-09-05T05:43:36.079Z,99.99
2022-09-05T05:44:36.067Z,99.99
2022-09-05T05:45:36.112Z,99.99
2022-09-05T05:46:36.049Z,99.99
2022-09-05T05:47:36.010Z,99.99
2022-09-05T05:48:36.009Z,99.99
2022-09-05T05:49:36.016Z,99.99
2022-09-05T05:50:36.008Z,99.99
2022-09-05T05:52:01.808Z,99.99
2022-09-05T05:52:36.964Z,99.99
2022-09-05T05:53:43.025Z,99.99
2022-09-05T05:54:36.945Z,99.99
2022-09-05T05:55:52.909Z,99.99
2022-09-05T05:56:36.932Z,99.99
2022-09-05T05:57:35.892Z,99.99
2022-09-05T05:58:35.883Z,99.99
2022-09-05T05:59:35.879Z,99.99
2022-09-05T06:00:35.872Z,99.99
2022-09-05T06:01:37.593Z,99.99
2022-09-05T06:02:35.911Z,99.99
2022-09-05T06:03:35.927Z,99.99
2022-09-05T06:04:35.826Z,99.99
2022-09-05T06:05:36.835Z,99.99
2022-09-05T06:06:35.784Z,99.99
2022-09-05T06:07:42.329Z,99.99
2022-09-05T06:11:18.070Z,99.99
2022-09-05T06:13:51.482Z,99.99
2022-09-05T06:14:50.351Z,99.99
2022-09-05T06:14:57.883Z,99.70
2022-09-05T06:14:59.313Z,99.99
2022-09-05T06:14:59.827Z,99.99
2022-09-05T06:15:01.050Z,99.80
2022-09-05T06:15:36.964Z,99.60
2022-09-05T06:16:35.704Z,99.60
2022-09-05T06:17:35.626Z,99.40
2022-09-05T06:18:37.643Z,99.25
2022-09-05T06:20:20.882Z,99.15
2022-09-05T06:22:04.075Z,99.05
2022-09-05T06:22:07.465Z,98.85
2022-09-05T06:22:36.585Z,98.85
2022-09-05T06:23:39.812Z,98.80
2022-09-05T06:24:35.561Z,98.90
2022-09-05T06:25:35.529Z,98.80
2022-09-05T06:26:35.536Z,98.60
2022-09-05T06:27:35.498Z,98.50
2022-09-05T06:28:36.488Z,98.50
2022-09-05T06:29:38.193Z,98.50
2022-09-05T06:30:35.477Z,98.39
2022-09-05T06:31:35.473Z,98.45
2022-09-05T06:32:35.456Z,98.45
2022-09-05T06:33:35.429Z,98.45
2022-09-05T06:34:36.095Z,98.45
2022-09-05T06:35:35.431Z,98.35
2022-09-05T06:36:35.399Z,98.14
2022-09-05T06:37:35.372Z,98.05
2022-09-05T06:38:35.373Z,97.69
2022-09-05T06:39:35.387Z,97.39
2022-09-05T06:40:35.330Z,97.19
2022-09-05T06:41:35.329Z,97.19
2022-09-05T06:42:43.385Z,96.78
2022-09-05T06:43:36.311Z,96.69
2022-09-05T06:44:35.268Z,96.64
2022-09-05T06:45:35.273Z,96.54
2022-09-05T06:46:55.367Z,96.34
2022-09-05T06:47:36.265Z,96.13
2022-09-05T06:48:45.977Z,95.93
2022-09-05T06:49:39.387Z,95.58
2022-09-05T06:50:49.746Z,95.28
2022-09-05T06:51:36.192Z,95.18
2022-09-05T06:52:35.174Z,94.98
2022-09-05T06:53:35.403Z,94.87
2022-09-05T06:54:35.422Z,94.93
2022-09-05T06:55:35.132Z,94.93
2022-09-05T06:56:35.125Z,95.14
2022-09-05T06:57:35.147Z,95.14
2022-09-05T06:58:36.106Z,94.93
2022-09-05T06:59:35.083Z,94.32
2022-09-05T07:00:35.143Z,93.92
2022-09-05T07:02:00.835Z,93.62
2022-09-05T07:03:00.200Z,93.68
2022-09-05T07:03:36.037Z,93.68
2022-09-05T07:05:37.070Z,93.68
2022-09-05T07:05:42.752Z,93.68
2022-09-05T07:06:44.302Z,93.68
2022-09-05T07:07:35.995Z,93.68
2022-09-05T07:08:37.158Z,93.57
2022-09-05T07:09:34.966Z,93.33
2022-09-05T07:10:38.752Z,93.23
2022-09-05T07:11:34.947Z,93.23
2022-09-05T07:12:34.898Z,93.13
2022-09-05T07:13:34.916Z,93.33
2022-09-05T07:14:34.900Z,93.13
2022-09-05T07:15:35.857Z,93.18
2022-09-05T07:16:37.728Z,92.18
2022-09-05T07:17:48.345Z,91.87
2022-09-05T07:18:35.827Z,91.06
2022-09-05T07:19:34.819Z,90.97
2022-09-05T07:20:47.848Z,90.66
2022-09-05T07:21:35.801Z,90.42
2022-09-05T07:22:46.319Z,90.32
2022-09-05T07:24:06.997Z,89.91
2022-09-05T07:24:53.556Z,90.01
2022-09-05T07:25:37.452Z,90.17
2022-09-05T07:26:52.013Z,89.26
2022-09-05T07:27:41.970Z,89.26
2022-09-05T07:28:35.734Z,89.57
2022-09-05T07:29:34.690Z,88.86
2022-09-05T07:30:35.670Z,88.72
2022-09-05T07:31:37.878Z,88.62
2022-09-05T07:32:34.647Z,88.52
2022-09-05T07:33:34.642Z,88.82
2022-09-05T07:34:34.637Z,88.68
2022-09-05T07:35:41.674Z,88.58
2022-09-05T07:36:35.611Z,88.28
2022-09-05T07:37:34.594Z,88.38
2022-09-05T07:38:55.029Z,87.87
2022-09-05T07:39:35.584Z,87.83
2022-09-05T07:40:34.557Z,87.83
2022-09-05T07:41:34.514Z,87.33
2022-09-05T07:42:34.523Z,87.49
2022-09-05T07:43:34.494Z,87.59
2022-09-05T07:44:34.503Z,87.08
2022-09-05T07:45:35.511Z,87.08
2022-09-05T07:46:34.474Z,86.88
2022-09-05T07:47:34.487Z,87.24
2022-09-05T07:48:35.678Z,87.35
2022-09-05T07:49:34.420Z,86.65
2022-09-05T07:56:46.653Z,86.20
2022-09-05T07:56:50.341Z,86.40
2022-09-05T07:56:50.857Z,85.80
2022-09-05T07:56:54.204Z,86.60
2022-09-05T07:56:56.044Z,86.44
2022-09-05T07:56:58.646Z,85.60
2022-09-05T07:57:05.033Z,84.85
2022-09-05T07:57:51.450Z,84.65
2022-09-05T07:58:35.303Z,84.55
2022-09-05T07:59:34.287Z,84.25
2022-09-05T08:00:35.291Z,84.01
2022-09-05T08:01:36.865Z,83.41
2022-09-05T08:02:35.263Z,84.01
2022-09-05T08:03:34.228Z,83.01
2022-09-05T08:04:34.262Z,83.11
2022-09-05T08:05:35.448Z,83.67
2022-09-05T08:06:41.481Z,84.37
2022-09-05T08:07:49.519Z,83.57
2022-09-05T08:08:35.179Z,82.46
2022-09-05T08:10:05.969Z,81.87
2022-09-05T08:11:22.038Z,81.76
2022-09-05T08:11:35.173Z,81.93
2022-09-05T08:12:51.941Z,82.82
2022-09-05T08:13:35.392Z,82.53
2022-09-05T08:14:44.947Z,83.63
2022-09-05T08:16:10.406Z,84.13
2022-09-05T08:16:35.145Z,83.03
2022-09-05T08:17:34.060Z,81.79
2022-09-05T08:18:34.031Z,81.38
2022-09-05T08:19:34.054Z,81.59
2022-09-05T08:20:35.011Z,82.39
2022-09-05T08:21:39.235Z,82.09
2022-09-05T08:22:35.013Z,81.99
2022-09-05T08:23:33.979Z,81.88
2022-09-05T08:24:33.966Z,81.48
2022-09-05T08:25:56.576Z,81.85
2022-09-05T08:26:34.953Z,82.15
2022-09-05T08:27:33.934Z,81.95
2022-09-05T08:28:39.235Z,81.24
2022-09-05T08:29:34.908Z,80.74
2022-09-05T08:30:34.874Z,81.85
2022-09-05T08:31:33.942Z,80.85
2022-09-05T08:32:35.504Z,81.45
2022-09-05T08:33:33.857Z,81.21
2022-09-05T08:34:44.489Z,80.61
2022-09-05T08:35:34.826Z,80.51
2022-09-05T08:36:33.800Z,80.41
2022-09-05T08:37:33.803Z,80.21
2022-09-05T08:38:40.633Z,80.61
2022-09-05T08:39:34.787Z,79.91
2022-09-05T08:40:33.776Z,80.07
2022-09-05T08:41:49.997Z,79.57
2022-09-05T08:42:34.761Z,79.17
2022-09-05T08:45:58.656Z,79.77
2022-09-05T08:46:41.809Z,79.23
2022-09-05T08:46:44.898Z,80.13
2022-09-05T08:46:45.726Z,79.03
2022-09-05T08:47:45.790Z,78.69
2022-09-05T08:48:34.655Z,78.09
2022-09-05T08:49:37.612Z,79.49
2022-09-05T08:50:34.648Z,77.79
2022-09-05T08:51:33.620Z,78.16
2022-09-05T08:52:33.610Z,76.95
2022-09-05T08:53:46.338Z,76.65
2022-09-05T08:54:34.570Z,77.36
2022-09-05T08:55:33.577Z,76.92
2022-09-05T08:56:33.581Z,76.92
2022-09-05T08:57:33.559Z,76.02
2022-09-05T08:58:33.502Z,75.89
2022-09-05T08:59:33.514Z,75.98
2022-09-05T09:00:33.533Z,77.98
2022-09-05T09:01:50.222Z,77.04
2022-09-05T09:02:47.378Z,75.65
2022-09-05T09:03:34.489Z,75.81
2022-09-05T09:05:02.536Z,74.32
2022-09-05T09:06:12.004Z,75.21
2022-09-05T09:06:34.416Z,74.68
2022-09-05T09:07:50.750Z,75.07
2022-09-05T09:08:34.397Z,74.48
2022-09-05T09:09:33.365Z,75.44
2022-09-05T09:10:33.376Z,74.84
2022-09-05T09:11:33.353Z,72.95
2022-09-05T09:12:33.337Z,71.75
2022-09-05T09:13:33.335Z,72.11
2022-09-05T09:14:33.285Z,72.81
2022-09-05T09:15:33.287Z,73.11
2022-09-05T09:16:33.347Z,73.61
2022-09-05T09:17:33.278Z,71.92
2022-09-05T09:18:36.012Z,71.81
2022-09-05T09:19:33.232Z,73.11
2022-09-05T09:20:33.254Z,73.47
2022-09-05T09:21:33.228Z,73.08
2022-09-05T09:22:33.197Z,73.18
2022-09-05T09:23:33.330Z,70.29
2022-09-05T09:24:33.165Z,70.45
2022-09-05T09:25:34.119Z,71.35
2022-09-05T09:26:33.140Z,70.06
2022-09-05T09:28:05.927Z,70.22
2022-09-05T09:28:49.574Z,68.63
2022-09-05T09:29:34.099Z,70.22
2022-09-05T09:30:33.110Z,68.33
2022-09-05T09:31:34.159Z,67.93
2022-09-05T09:32:33.067Z,66.35
2022-09-05T09:33:33.160Z,64.65
2022-09-05T09:34:33.067Z,66.24
2022-09-05T09:35:33.055Z,67.30
2022-09-05T09:36:33.032Z,68.30
2022-09-05T09:37:51.608Z,68.70
2022-09-05T09:38:34.001Z,68.40
2022-09-05T09:39:38.119Z,65.22
2022-09-05T09:40:33.972Z,65.39
2022-09-05T09:41:33.983Z,66.67
2022-09-05T09:42:34.172Z,63.89
2022-09-05T09:43:32.945Z,63.20
2022-09-05T09:44:32.927Z,64.79
2022-09-05T09:45:32.918Z,65.31
2022-09-05T09:46:32.949Z,65.19
2022-09-05T09:47:32.874Z,65.68
2022-09-05T10:08:05.166Z,61.91
2022-09-05T10:10:33.151Z,63.54
2022-09-05T10:10:44.577Z,66.44
2022-09-05T10:10:45.323Z,65.16
2022-09-05T10:10:50.464Z,65.65
2022-09-05T10:10:55.577Z,67.04
2022-09-05T10:11:08.802Z,66.78
2022-09-05T10:12:03.414Z,63.24
2022-09-05T10:13:08.575Z,64.92
2022-09-05T10:14:02.989Z,64.33
2022-09-05T10:15:23.208Z,61.72
2022-09-05T10:16:04.021Z,60.93
2022-09-05T10:17:01.943Z,61.29
2022-09-05T10:18:02.977Z,59.51
2022-09-05T10:19:01.918Z,61.16
2022-09-05T10:20:10.828Z,61.53
2022-09-05T10:21:16.725Z,61.23
2022-09-05T10:23:02.880Z,63.31
2022-09-05T10:24:02.851Z,62.02
2022-09-05T10:25:01.856Z,61.96
2022-09-05T10:26:02.840Z,60.00
2022-09-05T10:27:01.943Z,60.30
2022-09-05T10:28:01.819Z,62.81
2022-09-05T10:29:34.041Z,63.90
2022-09-05T10:30:03.350Z,60.30
2022-09-05T10:31:42.536Z,60.20
2022-09-05T10:35:08.086Z,60.74
2022-09-05T10:35:08.137Z,59.67
2022-09-05T10:35:08.291Z,58.83
2022-09-05T10:35:10.024Z,60.05
2022-09-05T10:36:02.709Z,59.49
2022-09-05T10:37:01.692Z,60.58
2022-09-05T10:38:04.381Z,59.27
2022-09-05T10:39:02.692Z,57.06
2022-09-05T10:40:01.711Z,57.53
2022-09-05T10:41:19.676Z,55.35
2022-09-05T10:42:03.591Z,56.93
2022-09-05T10:43:01.634Z,57.33
2022-09-05T10:44:01.613Z,57.40
2022-09-05T10:45:01.583Z,55.79
2022-09-05T10:46:01.652Z,56.38
2022-09-05T10:47:01.647Z,54.19
2022-09-05T10:48:08.433Z,54.06
2022-09-05T10:49:03.539Z,52.56
2022-09-05T10:50:01.538Z,54.53
2022-09-05T10:51:01.531Z,54.90
2022-09-05T10:52:03.541Z,54.38
2022-09-05T10:53:02.489Z,51.79
2022-09-05T10:54:01.478Z,52.68
2022-09-05T10:55:15.185Z,50.88
2022-09-05T10:56:02.459Z,50.76
2022-09-05T10:57:01.428Z,50.85
2022-09-05T10:58:01.454Z,49.16
2022-09-05T11:02:18.999Z,52.45
2022-09-05T11:02:20.099Z,50.39
2022-09-05T11:02:26.312Z,51.54
2022-09-05T11:02:29.621Z,50.39
2022-09-05T11:03:02.451Z,51.10
2022-09-05T11:04:01.499Z,49.90
2022-09-05T11:05:01.386Z,51.50
2022-09-05T11:06:09.221Z,51.20
2022-09-05T11:07:02.304Z,50.81
2022-09-05T11:08:01.308Z,49.92
2022-09-05T11:09:01.272Z,52.19
2022-09-05T11:10:01.302Z,52.06
2022-09-05T11:11:01.254Z,51.57
2022-09-05T11:12:01.253Z,49.82
2022-09-05T11:13:01.252Z,50.71
2022-09-05T11:14:01.265Z,50.95
2022-09-05T11:15:01.229Z,50.85
2022-09-05T11:16:04.979Z,51.72
2022-09-05T11:17:02.183Z,50.51
2022-09-05T11:18:01.194Z,51.45
2022-09-05T11:19:01.166Z,50.54
2022-09-05T11:20:01.156Z,50.71
2022-09-05T11:21:01.161Z,49.80
2022-09-05T11:22:06.504Z,49.08
2022-09-05T11:23:02.126Z,47.79
2022-09-05T11:24:01.086Z,48.67
2022-09-05T11:25:01.076Z,48.45
2022-09-05T11:26:01.101Z,46.56
2022-09-05T11:27:24.966Z,47.62
2022-09-05T11:28:02.057Z,45.76
2022-09-05T11:29:01.182Z,45.07
2022-09-05T11:30:01.019Z,45.93
2022-09-05T11:31:01.019Z,45.54
2022-09-05T11:36:23.600Z,46.23
2022-09-05T11:38:34.142Z,44.54
2022-09-05T11:39:47.922Z,46.59
2022-09-05T11:39:50.203Z,43.95
2022-09-05T11:39:52.236Z,45.91
2022-09-05T11:39:52.577Z,47.20
2022-09-05T11:40:08.638Z,43.63
2022-09-05T11:40:09.608Z,43.73
2022-09-05T11:40:28.269Z,43.93
2022-09-05T11:41:11.663Z,44.71
2022-09-05T11:42:02.963Z,45.20
2022-09-05T11:43:09.524Z,43.73
2022-09-05T11:44:25.007Z,44.62
2022-09-05T11:45:01.814Z,44.62
2022-09-05T11:46:00.890Z,44.79
2022-09-05T11:47:14.264Z,43.01
2022-09-05T11:48:01.805Z,42.71
2022-09-05T11:49:00.779Z,43.65
2022-09-05T11:50:00.765Z,42.44
2022-09-05T11:51:00.747Z,42.51
2022-09-05T11:52:00.742Z,39.92
2022-09-05T11:53:00.716Z,39.88
2022-09-05T11:54:00.709Z,38.64
2022-09-05T11:55:00.699Z,39.18
2022-09-05T11:56:00.688Z,39.55
2022-09-05T11:57:02.182Z,39.57
2022-09-05T11:58:43.860Z,38.90
2022-09-05T11:59:04.784Z,40.25
2022-09-05T12:00:32.154Z,42.09
2022-09-05T12:01:42.067Z,43.84
2022-09-05T12:02:16.975Z,46.17
2022-09-05T12:03:01.627Z,47.00
2022-09-05T12:04:02.199Z,48.13
2022-09-05T12:05:48.818Z,49.06
2022-09-05T12:06:01.708Z,49.90
2022-09-05T12:07:00.722Z,51.42
2022-09-05T12:08:00.568Z,51.84
2022-09-05T12:09:00.546Z,54.86
2022-09-05T12:10:00.514Z,54.06
2022-09-05T12:11:00.537Z,53.60
2022-09-05T12:12:00.485Z,54.79
2022-09-05T12:13:00.496Z,54.49
2022-09-05T12:14:00.475Z,54.49
2022-09-05T12:15:04.296Z,55.18
2022-09-05T12:16:08.126Z,52.87
2022-09-05T12:17:01.418Z,52.21
2022-09-05T12:18:00.427Z,47.91
2022-09-05T12:19:02.855Z,46.41
2022-09-05T12:20:01.388Z,46.78
2022-09-05T12:21:00.366Z,46.49
2022-09-05T12:22:00.349Z,46.46
2022-09-05T12:23:01.366Z,46.60
2022-09-05T12:25:15.921Z,50.88
2022-09-05T12:25:27.081Z,53.59
2022-09-05T12:27:40.096Z,50.98
2022-09-05T12:27:41.241Z,52.68
2022-09-05T12:29:25.996Z,54.88
2022-09-05T12:29:34.002Z,54.80
2022-09-05T12:30:01.419Z,53.45
2022-09-05T12:33:10.113Z,54.98
2022-09-05T12:36:01.602Z,50.71
2022-09-05T12:36:05.732Z,53.64
2022-09-05T12:36:11.322Z,50.85
2022-09-05T12:36:12.598Z,49.92
2022-09-05T12:40:56.189Z,50.19
2022-09-05T12:40:58.170Z,50.56
2022-09-05T12:41:01.159Z,51.42
2022-09-05T12:41:34.562Z,51.64
2022-09-05T12:41:41.973Z,53.57
2022-09-05T12:41:43.087Z,51.77
2022-09-05T12:42:14.502Z,52.88
2022-09-05T12:44:39.009Z,53.60
2022-09-05T12:44:41.384Z,55.51
2022-09-05T12:45:01.583Z,54.54
2022-09-05T12:46:00.167Z,57.41
2022-09-05T12:47:00.026Z,60.91
2022-09-05T12:48:01.056Z,60.31
2022-09-05T12:49:06.867Z,57.24
2022-09-05T12:50:02.775Z,58.53
2022-09-05T12:51:00.002Z,57.44
2022-09-05T12:51:59.987Z,61.21
2022-09-05T12:52:59.979Z,58.80
2022-09-05T12:53:59.978Z,54.65
2022-09-05T12:54:59.968Z,50.34
2022-09-05T12:56:18.491Z,46.47
2022-09-05T13:01:05.142Z,43.81
2022-09-05T13:02:46.679Z,41.95
2022-09-05T13:02:55.314Z,39.92
2022-09-05T13:03:02.513Z,38.09
2022-09-05T13:03:05.380Z,37.74
2022-09-05T13:03:05.900Z,38.32
2022-09-05T13:03:28.096Z,39.16
2022-09-05T13:04:17.556Z,35.56
2022-09-05T13:05:01.776Z,35.54
2022-09-05T13:05:59.949Z,37.55
2022-09-05T13:06:59.782Z,34.62
2022-09-05T13:07:59.786Z,35.39
2022-09-05T13:09:00.278Z,34.12
2022-09-05T13:12:12.323Z,33.44
2022-09-05T13:14:49.304Z,34.13
2022-09-05T13:14:53.611Z,33.17
2022-09-05T13:14:54.536Z,33.75
2022-09-05T13:15:02.407Z,34.23
2022-09-05T13:15:12.448Z,33.45
2022-09-05T13:16:00.741Z,33.07
2022-09-05T13:16:59.673Z,32.86
2022-09-05T13:17:59.668Z,33.05
2022-09-05T13:18:59.647Z,33.05
2022-09-05T13:19:59.663Z,32.47
2022-09-05T13:20:59.627Z,33.83
2022-09-05T13:21:59.621Z,33.44
2022-09-05T13:22:59.629Z,32.86
2022-09-05T13:23:59.586Z,33.15
2022-09-05T13:24:59.577Z,33.92
2022-09-05T13:25:59.570Z,34.31
2022-09-05T13:26:59.551Z,33.15
2022-09-05T13:27:59.530Z,31.80
2022-09-05T13:29:10.977Z,32.62